메인 페이지
METAR-TAF:

METAR-TAF

공항 :

Jammu, 인도

위도: 32-41-21N, 경도: 74-50-15E, 고도: 314m

METAR: 누락

시각: 04:23 (22:53 UTC)

예보

예보는 37 시간 23분 전, 09:30시(UTC)에 발표되었습니다.
예보 대상 시간: 27일 18시부터 28일 12시까지 (UTC)
북동5kt
시정: 6000m
고도 2000ft 상공 구름 보통
전환 중
28일 00시부터 28일 02시까지 (UTC)
서북서5kt
시정: 6000m
고도 2000ft 상공 구름 조금
고도 25000ft 상공 구름 보통
일시적
28일 10시부터 28일 12시까지 (UTC)
북동10kt
시정: 6000m
고도 3000ft 상공 구름 조금

TAF: VIJU 270930Z 2718/2812 05005KT 6000 SCT020 BECMG 2800/2802 29005KT 6000 FEW020 SCT250 TEMPO 2810/28125 05010KT 6000 FEW030 TCU/CB

4,000개 이상의 공항 관측 자료 및 예보 (METAR 및 TAF 보고).

지도상에서 검색 가능한 기상관측소가 노란 점과 빨간 점으로 표시되어 있습니다.

기상관측소 명을 보려면 표시 위로 마우스를 이동하세요.

날씨 관측과 예보를 보려면 클릭하세요.

지도 변경 : 확대하려면 엑스 표시가 있는 녹색 버튼, 축소하려면 빼기 표시가 있는 녹색 버튼, 다음 페이지의 지도를 보려면 녹색 화살표를 클릭하세요.


METAR-TAF: